sensor_id;sensor_type;location;lat;lon;timestamp;P1;durP1;ratioP1;P2;durP2;ratioP2
72590;SDS011;60625;51.212;5.952;2023-07-02T00:02:07;11.10;;;3.90;;
72590;SDS011;60625;51.212;5.952;2023-07-02T00:07:08;9.80;;;3.50;;
72590;SDS011;60625;51.212;5.952;2023-07-02T00:12:08;10.20;;;4.00;;
72590;SDS011;60625;51.212;5.952;2023-07-02T00:17:10;12.40;;;4.20;;
72590;SDS011;60625;51.212;5.952;2023-07-02T00:22:13;12.30;;;4.60;;
72590;SDS011;60625;51.212;5.952;2023-07-02T00:27:16;13.40;;;4.60;;
72590;SDS011;60625;51.212;5.952;2023-07-02T00:32:16;13.80;;;5.00;;
72590;SDS011;60625;51.212;5.952;2023-07-02T00:37:17;17.00;;;5.40;;
72590;SDS011;60625;51.212;5.952;2023-07-02T00:42:17;14.00;;;5.50;;
72590;SDS011;60625;51.212;5.952;2023-07-02T00:47:18;11.50;;;5.20;;
72590;SDS011;60625;51.212;5.952;2023-07-02T00:52:19;17.70;;;5.60;;
72590;SDS011;60625;51.212;5.952;2023-07-02T00:57:20;14.80;;;5.90;;
72590;SDS011;60625;51.212;5.952;2023-07-02T01:02:21;14.10;;;5.40;;
72590;SDS011;60625;51.212;5.952;2023-07-02T01:07:21;12.20;;;5.60;;
72590;SDS011;60625;51.212;5.952;2023-07-02T01:12:22;14.90;;;6.40;;
72590;SDS011;60625;51.212;5.952;2023-07-02T01:17:23;15.40;;;6.30;;
72590;SDS011;60625;51.212;5.952;2023-07-02T01:22:26;19.70;;;7.20;;
72590;SDS011;60625;51.212;5.952;2023-07-02T01:27:29;18.80;;;7.60;;
72590;SDS011;60625;51.212;5.952;2023-07-02T01:32:29;18.30;;;7.20;;
72590;SDS011;60625;51.212;5.952;2023-07-02T01:37:30;17.90;;;7.20;;
72590;SDS011;60625;51.212;5.952;2023-07-02T01:42:37;23.40;;;8.00;;
72590;SDS011;60625;51.212;5.952;2023-07-02T01:47:38;19.00;;;7.70;;
72590;SDS011;60625;51.212;5.952;2023-07-02T01:52:39;23.60;;;9.60;;
72590;SDS011;60625;51.212;5.952;2023-07-02T01:57:39;18.60;;;8.40;;
72590;SDS011;60625;51.212;5.952;2023-07-02T02:02:40;21.20;;;8.10;;
72590;SDS011;60625;51.212;5.952;2023-07-02T02:07:41;18.90;;;8.20;;
72590;SDS011;60625;51.212;5.952;2023-07-02T02:12:41;22.20;;;8.80;;
72590;SDS011;60625;51.212;5.952;2023-07-02T02:17:42;19.80;;;8.50;;
72590;SDS011;60625;51.212;5.952;2023-07-02T02:22:43;20.70;;;8.30;;
72590;SDS011;60625;51.212;5.952;2023-07-02T02:27:43;23.20;;;9.80;;
72590;SDS011;60625;51.212;5.952;2023-07-02T02:32:44;24.10;;;9.00;;
72590;SDS011;60625;51.212;5.952;2023-07-02T02:37:45;23.40;;;9.10;;
72590;SDS011;60625;51.212;5.952;2023-07-02T02:42:46;21.80;;;8.80;;
72590;SDS011;60625;51.212;5.952;2023-07-02T02:47:47;22.20;;;9.00;;
72590;SDS011;60625;51.212;5.952;2023-07-02T02:52:47;22.20;;;8.90;;
72590;SDS011;60625;51.212;5.952;2023-07-02T02:57:48;23.30;;;10.40;;
72590;SDS011;60625;51.212;5.952;2023-07-02T03:02:49;23.70;;;9.00;;
72590;SDS011;60625;51.212;5.952;2023-07-02T03:07:50;21.90;;;9.40;;
72590;SDS011;60625;51.212;5.952;2023-07-02T03:12:51;23.70;;;11.50;;
72590;SDS011;60625;51.212;5.952;2023-07-02T03:17:52;24.10;;;10.50;;
72590;SDS011;60625;51.212;5.952;2023-07-02T03:22:52;21.70;;;10.80;;
72590;SDS011;60625;51.212;5.952;2023-07-02T03:27:53;26.10;;;11.40;;
72590;SDS011;60625;51.212;5.952;2023-07-02T03:32:53;23.90;;;11.10;;
72590;SDS011;60625;51.212;5.952;2023-07-02T03:37:54;27.70;;;12.60;;
72590;SDS011;60625;51.212;5.952;2023-07-02T03:42:54;27.10;;;11.00;;
72590;SDS011;60625;51.212;5.952;2023-07-02T03:47:55;27.10;;;11.00;;
72590;SDS011;60625;51.212;5.952;2023-07-02T03:52:55;26.90;;;12.00;;
72590;SDS011;60625;51.212;5.952;2023-07-02T03:57:56;29.20;;;11.40;;
72590;SDS011;60625;51.212;5.952;2023-07-02T04:02:56;26.80;;;11.00;;
72590;SDS011;60625;51.212;5.952;2023-07-02T04:07:57;28.20;;;11.80;;
72590;SDS011;60625;51.212;5.952;2023-07-02T04:12:57;26.70;;;12.30;;
72590;SDS011;60625;51.212;5.952;2023-07-02T04:17:58;29.50;;;11.20;;
72590;SDS011;60625;51.212;5.952;2023-07-02T04:22:59;27.50;;;12.20;;
72590;SDS011;60625;51.212;5.952;2023-07-02T04:27:59;26.20;;;12.00;;
72590;SDS011;60625;51.212;5.952;2023-07-02T04:33:00;31.90;;;12.50;;
72590;SDS011;60625;51.212;5.952;2023-07-02T04:38:01;29.00;;;12.40;;
72590;SDS011;60625;51.212;5.952;2023-07-02T04:43:02;28.90;;;12.10;;
72590;SDS011;60625;51.212;5.952;2023-07-02T04:48:04;24.60;;;11.50;;
72590;SDS011;60625;51.212;5.952;2023-07-02T04:53:05;27.50;;;11.40;;
72590;SDS011;60625;51.212;5.952;2023-07-02T04:58:06;33.40;;;12.80;;
72590;SDS011;60625;51.212;5.952;2023-07-02T05:03:06;30.10;;;12.00;;
72590;SDS011;60625;51.212;5.952;2023-07-02T05:08:10;28.10;;;12.60;;
72590;SDS011;60625;51.212;5.952;2023-07-02T05:13:11;31.30;;;12.30;;
72590;SDS011;60625;51.212;5.952;2023-07-02T05:18:12;32.50;;;13.30;;
72590;SDS011;60625;51.212;5.952;2023-07-02T05:23:13;32.20;;;13.00;;
72590;SDS011;60625;51.212;5.952;2023-07-02T05:28:13;28.60;;;12.60;;
72590;SDS011;60625;51.212;5.952;2023-07-02T05:33:14;30.30;;;13.40;;
72590;SDS011;60625;51.212;5.952;2023-07-02T05:38:15;27.70;;;13.00;;
72590;SDS011;60625;51.212;5.952;2023-07-02T05:43:16;28.40;;;12.60;;
72590;SDS011;60625;51.212;5.952;2023-07-02T05:48:17;30.40;;;11.60;;
72590;SDS011;60625;51.212;5.952;2023-07-02T05:53:17;29.50;;;12.10;;
72590;SDS011;60625;51.212;5.952;2023-07-02T05:58:18;28.20;;;12.00;;
72590;SDS011;60625;51.212;5.952;2023-07-02T06:03:19;30.20;;;11.80;;
72590;SDS011;60625;51.212;5.952;2023-07-02T06:08:20;31.60;;;12.40;;
72590;SDS011;60625;51.212;5.952;2023-07-02T06:13:21;31.90;;;12.80;;
72590;SDS011;60625;51.212;5.952;2023-07-02T06:18:22;24.00;;;11.90;;
72590;SDS011;60625;51.212;5.952;2023-07-02T06:23:22;29.30;;;12.80;;
72590;SDS011;60625;51.212;5.952;2023-07-02T06:28:23;31.10;;;13.30;;
72590;SDS011;60625;51.212;5.952;2023-07-02T06:33:23;31.20;;;13.50;;
72590;SDS011;60625;51.212;5.952;2023-07-02T06:38:24;24.80;;;11.00;;
72590;SDS011;60625;51.212;5.952;2023-07-02T06:43:24;28.70;;;11.60;;
72590;SDS011;60625;51.212;5.952;2023-07-02T06:48:25;27.70;;;11.40;;
72590;SDS011;60625;51.212;5.952;2023-07-02T06:53:25;28.80;;;11.80;;
72590;SDS011;60625;51.212;5.952;2023-07-02T06:58:26;25.00;;;10.80;;
72590;SDS011;60625;51.212;5.952;2023-07-02T07:03:26;22.90;;;10.30;;
72590;SDS011;60625;51.212;5.952;2023-07-02T07:08:27;28.50;;;11.50;;
72590;SDS011;60625;51.212;5.952;2023-07-02T07:13:28;24.60;;;10.70;;
72590;SDS011;60625;51.212;5.952;2023-07-02T07:18:29;21.70;;;9.70;;
72590;SDS011;60625;51.212;5.952;2023-07-02T07:23:30;26.70;;;10.60;;
72590;SDS011;60625;51.212;5.952;2023-07-02T07:28:30;23.80;;;9.20;;
72590;SDS011;60625;51.212;5.952;2023-07-02T07:33:30;20.90;;;9.00;;
72590;SDS011;60625;51.212;5.952;2023-07-02T07:38:31;22.50;;;9.20;;
72590;SDS011;60625;51.212;5.952;2023-07-02T07:43:31;17.60;;;8.10;;
72590;SDS011;60625;51.212;5.952;2023-07-02T07:48:32;20.20;;;7.90;;
72590;SDS011;60625;51.212;5.952;2023-07-02T07:53:37;24.80;;;9.40;;
72590;SDS011;60625;51.212;5.952;2023-07-02T07:58:41;25.90;;;9.20;;
72590;SDS011;60625;51.212;5.952;2023-07-02T08:03:41;25.40;;;10.50;;
72590;SDS011;60625;51.212;5.952;2023-07-02T08:08:42;21.30;;;9.00;;
72590;SDS011;60625;51.212;5.952;2023-07-02T08:13:42;25.90;;;8.90;;
72590;SDS011;60625;51.212;5.952;2023-07-02T08:18:43;21.50;;;9.10;;
72590;SDS011;60625;51.212;5.952;2023-07-02T08:23:44;20.20;;;8.80;;
72590;SDS011;60625;51.212;5.952;2023-07-02T08:28:44;23.10;;;9.70;;
72590;SDS011;60625;51.212;5.952;2023-07-02T08:33:45;20.00;;;8.60;;
72590;SDS011;60625;51.212;5.952;2023-07-02T08:38:45;19.20;;;7.70;;
72590;SDS011;60625;51.212;5.952;2023-07-02T08:43:46;22.20;;;7.50;;
72590;SDS011;60625;51.212;5.952;2023-07-02T08:48:49;17.20;;;7.20;;
72590;SDS011;60625;51.212;5.952;2023-07-02T08:53:50;17.20;;;6.60;;
72590;SDS011;60625;51.212;5.952;2023-07-02T08:58:50;15.20;;;5.40;;
72590;SDS011;60625;51.212;5.952;2023-07-02T09:03:51;18.10;;;5.60;;
72590;SDS011;60625;51.212;5.952;2023-07-02T09:08:52;13.10;;;4.60;;
72590;SDS011;60625;51.212;5.952;2023-07-02T09:13:53;13.10;;;5.20;;
72590;SDS011;60625;51.212;5.952;2023-07-02T09:19:02;14.30;;;5.30;;
72590;SDS011;60625;51.212;5.952;2023-07-02T09:29:21;15.20;;;5.30;;
72590;SDS011;60625;51.212;5.952;2023-07-02T09:34:29;16.50;;;5.20;;
72590;SDS011;60625;51.212;5.952;2023-07-02T09:39:33;13.20;;;5.60;;
72590;SDS011;60625;51.212;5.952;2023-07-02T09:44:35;16.80;;;5.60;;
72590;SDS011;60625;51.212;5.952;2023-07-02T09:49:37;15.80;;;6.20;;
72590;SDS011;60625;51.212;5.952;2023-07-02T09:54:38;15.00;;;6.30;;
72590;SDS011;60625;51.212;5.952;2023-07-02T09:59:42;17.80;;;6.60;;
72590;SDS011;60625;51.212;5.952;2023-07-02T10:04:47;15.10;;;5.90;;
72590;SDS011;60625;51.212;5.952;2023-07-02T10:09:50;17.20;;;5.80;;
72590;SDS011;60625;51.212;5.952;2023-07-02T10:14:55;17.20;;;6.10;;
72590;SDS011;60625;51.212;5.952;2023-07-02T10:20:03;16.20;;;6.40;;
72590;SDS011;60625;51.212;5.952;2023-07-02T10:25:07;13.10;;;5.70;;
72590;SDS011;60625;51.212;5.952;2023-07-02T10:30:09;18.80;;;6.60;;
72590;SDS011;60625;51.212;5.952;2023-07-02T10:35:14;15.20;;;6.30;;
72590;SDS011;60625;51.212;5.952;2023-07-02T10:40:16;19.50;;;6.90;;
72590;SDS011;60625;51.212;5.952;2023-07-02T10:45:30;19.20;;;6.70;;
72590;SDS011;60625;51.212;5.952;2023-07-02T10:50:33;17.50;;;6.60;;
72590;SDS011;60625;51.212;5.952;2023-07-02T10:55:34;13.40;;;6.40;;
72590;SDS011;60625;51.212;5.952;2023-07-02T11:00:45;18.50;;;6.90;;
72590;SDS011;60625;51.212;5.952;2023-07-02T11:05:48;16.10;;;5.60;;
72590;SDS011;60625;51.212;5.952;2023-07-02T11:10:50;15.70;;;5.70;;
72590;SDS011;60625;51.212;5.952;2023-07-02T11:15:51;15.30;;;6.30;;
72590;SDS011;60625;51.212;5.952;2023-07-02T11:20:51;14.00;;;5.80;;
72590;SDS011;60625;51.212;5.952;2023-07-02T11:31:00;18.30;;;6.10;;
72590;SDS011;60625;51.212;5.952;2023-07-02T11:36:04;15.20;;;6.40;;
72590;SDS011;60625;51.212;5.952;2023-07-02T11:41:05;15.00;;;5.70;;
72590;SDS011;60625;51.212;5.952;2023-07-02T11:46:06;16.70;;;6.50;;
72590;SDS011;60625;51.212;5.952;2023-07-02T11:51:07;15.20;;;6.30;;
72590;SDS011;60625;51.212;5.952;2023-07-02T11:56:07;16.20;;;6.70;;
72590;SDS011;60625;51.212;5.952;2023-07-02T12:01:08;13.80;;;5.10;;
72590;SDS011;60625;51.212;5.952;2023-07-02T12:06:08;18.00;;;6.00;;
72590;SDS011;60625;51.212;5.952;2023-07-02T12:11:08;14.30;;;5.90;;
72590;SDS011;60625;51.212;5.952;2023-07-02T12:16:09;16.10;;;6.20;;
72590;SDS011;60625;51.212;5.952;2023-07-02T12:21:10;17.90;;;6.60;;
72590;SDS011;60625;51.212;5.952;2023-07-02T12:26:11;18.20;;;6.90;;
72590;SDS011;60625;51.212;5.952;2023-07-02T12:31:12;17.10;;;6.30;;
72590;SDS011;60625;51.212;5.952;2023-07-02T12:36:13;17.40;;;6.70;;
72590;SDS011;60625;51.212;5.952;2023-07-02T12:41:14;15.20;;;6.70;;
72590;SDS011;60625;51.212;5.952;2023-07-02T12:46:15;20.00;;;7.40;;
72590;SDS011;60625;51.212;5.952;2023-07-02T12:51:15;18.50;;;7.80;;
72590;SDS011;60625;51.212;5.952;2023-07-02T12:56:16;22.20;;;7.40;;
72590;SDS011;60625;51.212;5.952;2023-07-02T13:01:17;17.20;;;7.60;;
72590;SDS011;60625;51.212;5.952;2023-07-02T13:06:18;16.50;;;7.40;;
72590;SDS011;60625;51.212;5.952;2023-07-02T13:11:18;18.80;;;7.20;;
72590;SDS011;60625;51.212;5.952;2023-07-02T13:16:19;16.90;;;8.10;;
72590;SDS011;60625;51.212;5.952;2023-07-02T13:21:20;14.20;;;6.60;;
72590;SDS011;60625;51.212;5.952;2023-07-02T13:26:20;16.50;;;7.30;;
72590;SDS011;60625;51.212;5.952;2023-07-02T13:31:21;17.30;;;7.30;;
72590;SDS011;60625;51.212;5.952;2023-07-02T13:36:21;16.20;;;7.40;;
72590;SDS011;60625;51.212;5.952;2023-07-02T13:41:22;13.90;;;6.20;;
72590;SDS011;60625;51.212;5.952;2023-07-02T13:46:23;17.80;;;7.60;;
72590;SDS011;60625;51.212;5.952;2023-07-02T13:51:24;16.40;;;7.90;;
72590;SDS011;60625;51.212;5.952;2023-07-02T13:56:24;15.80;;;7.00;;
72590;SDS011;60625;51.212;5.952;2023-07-02T14:01:25;15.00;;;7.10;;
72590;SDS011;60625;51.212;5.952;2023-07-02T14:06:27;18.00;;;7.60;;
72590;SDS011;60625;51.212;5.952;2023-07-02T14:11:28;18.00;;;7.60;;
72590;SDS011;60625;51.212;5.952;2023-07-02T14:16:29;16.10;;;6.40;;
72590;SDS011;60625;51.212;5.952;2023-07-02T14:21:30;20.00;;;7.30;;
72590;SDS011;60625;51.212;5.952;2023-07-02T14:26:30;16.10;;;7.20;;
72590;SDS011;60625;51.212;5.952;2023-07-02T14:31:31;15.50;;;7.10;;
72590;SDS011;60625;51.212;5.952;2023-07-02T14:36:31;13.50;;;6.40;;
72590;SDS011;60625;51.212;5.952;2023-07-02T14:41:32;16.00;;;5.90;;
72590;SDS011;60625;51.212;5.952;2023-07-02T14:46:35;15.70;;;7.30;;
72590;SDS011;60625;51.212;5.952;2023-07-02T14:51:37;19.40;;;7.00;;
72590;SDS011;60625;51.212;5.952;2023-07-02T14:56:38;15.80;;;6.70;;
72590;SDS011;60625;51.212;5.952;2023-07-02T15:01:38;19.70;;;6.50;;
72590;SDS011;60625;51.212;5.952;2023-07-02T15:06:40;10.40;;;5.10;;
72590;SDS011;60625;51.212;5.952;2023-07-02T15:11:41;14.10;;;6.70;;
72590;SDS011;60625;51.212;5.952;2023-07-02T15:16:44;17.20;;;6.30;;
72590;SDS011;60625;51.212;5.952;2023-07-02T15:21:45;14.10;;;5.90;;
72590;SDS011;60625;51.212;5.952;2023-07-02T15:26:46;14.60;;;6.50;;
72590;SDS011;60625;51.212;5.952;2023-07-02T15:31:48;16.50;;;7.50;;
72590;SDS011;60625;51.212;5.952;2023-07-02T15:36:49;14.60;;;6.60;;
72590;SDS011;60625;51.212;5.952;2023-07-02T15:41:50;15.90;;;6.30;;
72590;SDS011;60625;51.212;5.952;2023-07-02T15:46:50;17.90;;;6.80;;
72590;SDS011;60625;51.212;5.952;2023-07-02T15:51:52;15.30;;;6.60;;
72590;SDS011;60625;51.212;5.952;2023-07-02T15:56:52;16.00;;;6.70;;
72590;SDS011;60625;51.212;5.952;2023-07-02T16:01:53;15.70;;;5.90;;
72590;SDS011;60625;51.212;5.952;2023-07-02T16:06:53;19.70;;;6.30;;
72590;SDS011;60625;51.212;5.952;2023-07-02T16:11:54;13.70;;;6.30;;
72590;SDS011;60625;51.212;5.952;2023-07-02T16:16:54;13.80;;;6.10;;
72590;SDS011;60625;51.212;5.952;2023-07-02T16:21:55;15.10;;;7.10;;
72590;SDS011;60625;51.212;5.952;2023-07-02T16:26:55;21.00;;;8.00;;
72590;SDS011;60625;51.212;5.952;2023-07-02T16:31:58;13.80;;;6.70;;
72590;SDS011;60625;51.212;5.952;2023-07-02T16:36:59;15.10;;;5.90;;
72590;SDS011;60625;51.212;5.952;2023-07-02T16:42:00;15.50;;;6.10;;
72590;SDS011;60625;51.212;5.952;2023-07-02T16:47:00;15.10;;;6.30;;
72590;SDS011;60625;51.212;5.952;2023-07-02T16:52:01;18.40;;;6.20;;
72590;SDS011;60625;51.212;5.952;2023-07-02T16:57:03;16.70;;;6.10;;
72590;SDS011;60625;51.212;5.952;2023-07-02T17:02:06;13.70;;;6.60;;
72590;SDS011;60625;51.212;5.952;2023-07-02T17:07:08;17.40;;;6.60;;
72590;SDS011;60625;51.212;5.952;2023-07-02T17:12:11;17.00;;;6.90;;
72590;SDS011;60625;51.212;5.952;2023-07-02T17:17:20;16.20;;;6.60;;
72590;SDS011;60625;51.212;5.952;2023-07-02T17:22:27;15.70;;;6.30;;
72590;SDS011;60625;51.212;5.952;2023-07-02T17:27:31;13.70;;;6.20;;
72590;SDS011;60625;51.212;5.952;2023-07-02T17:32:35;14.20;;;6.20;;
72590;SDS011;60625;51.212;5.952;2023-07-02T17:37:36;16.40;;;6.60;;
72590;SDS011;60625;51.212;5.952;2023-07-02T17:42:36;15.20;;;6.80;;
72590;SDS011;60625;51.212;5.952;2023-07-02T17:47:37;16.10;;;6.60;;
72590;SDS011;60625;51.212;5.952;2023-07-02T17:52:38;18.20;;;6.60;;
72590;SDS011;60625;51.212;5.952;2023-07-02T17:57:39;16.80;;;6.50;;
72590;SDS011;60625;51.212;5.952;2023-07-02T18:02:40;14.70;;;6.30;;
72590;SDS011;60625;51.212;5.952;2023-07-02T18:07:40;15.80;;;6.60;;
72590;SDS011;60625;51.212;5.952;2023-07-02T18:12:41;16.60;;;6.30;;
72590;SDS011;60625;51.212;5.952;2023-07-02T18:17:41;17.40;;;6.20;;
72590;SDS011;60625;51.212;5.952;2023-07-02T18:22:42;18.60;;;7.00;;
72590;SDS011;60625;51.212;5.952;2023-07-02T18:27:42;16.90;;;6.30;;
72590;SDS011;60625;51.212;5.952;2023-07-02T18:32:43;16.60;;;7.20;;
72590;SDS011;60625;51.212;5.952;2023-07-02T18:37:43;17.80;;;6.30;;
72590;SDS011;60625;51.212;5.952;2023-07-02T18:42:49;15.50;;;6.10;;
72590;SDS011;60625;51.212;5.952;2023-07-02T18:47:49;15.60;;;6.40;;
72590;SDS011;60625;51.212;5.952;2023-07-02T18:52:49;15.90;;;5.80;;
72590;SDS011;60625;51.212;5.952;2023-07-02T18:57:51;16.30;;;5.40;;
72590;SDS011;60625;51.212;5.952;2023-07-02T19:02:51;16.50;;;6.40;;
72590;SDS011;60625;51.212;5.952;2023-07-02T19:07:55;15.10;;;5.60;;
72590;SDS011;60625;51.212;5.952;2023-07-02T19:12:57;17.40;;;5.90;;
72590;SDS011;60625;51.212;5.952;2023-07-02T19:18:00;18.10;;;5.40;;
72590;SDS011;60625;51.212;5.952;2023-07-02T19:23:02;22.10;;;6.00;;
72590;SDS011;60625;51.212;5.952;2023-07-02T19:28:03;14.80;;;5.60;;
72590;SDS011;60625;51.212;5.952;2023-07-02T19:33:04;18.00;;;6.10;;
72590;SDS011;60625;51.212;5.952;2023-07-02T19:38:06;18.40;;;5.70;;
72590;SDS011;60625;51.212;5.952;2023-07-02T19:43:06;13.30;;;5.30;;
72590;SDS011;60625;51.212;5.952;2023-07-02T19:48:07;17.70;;;5.20;;
72590;SDS011;60625;51.212;5.952;2023-07-02T19:53:08;13.50;;;4.80;;
72590;SDS011;60625;51.212;5.952;2023-07-02T19:58:08;18.30;;;5.40;;
72590;SDS011;60625;51.212;5.952;2023-07-02T20:03:09;13.70;;;4.90;;
72590;SDS011;60625;51.212;5.952;2023-07-02T20:08:12;16.60;;;5.00;;
72590;SDS011;60625;51.212;5.952;2023-07-02T20:13:12;13.50;;;4.70;;
72590;SDS011;60625;51.212;5.952;2023-07-02T20:18:13;14.50;;;4.70;;
72590;SDS011;60625;51.212;5.952;2023-07-02T20:23:14;13.30;;;4.80;;
72590;SDS011;60625;51.212;5.952;2023-07-02T20:28:14;16.20;;;4.90;;
72590;SDS011;60625;51.212;5.952;2023-07-02T20:33:15;11.50;;;4.30;;
72590;SDS011;60625;51.212;5.952;2023-07-02T20:38:15;13.50;;;4.60;;
72590;SDS011;60625;51.212;5.952;2023-07-02T20:43:16;14.60;;;4.10;;
72590;SDS011;60625;51.212;5.952;2023-07-02T20:48:16;12.90;;;3.30;;
72590;SDS011;60625;51.212;5.952;2023-07-02T20:53:17;11.40;;;3.30;;
72590;SDS011;60625;51.212;5.952;2023-07-02T20:58:18;12.10;;;2.90;;
72590;SDS011;60625;51.212;5.952;2023-07-02T21:03:18;13.30;;;3.10;;
72590;SDS011;60625;51.212;5.952;2023-07-02T21:08:19;12.30;;;3.00;;
72590;SDS011;60625;51.212;5.952;2023-07-02T21:13:20;12.40;;;2.50;;
72590;SDS011;60625;51.212;5.952;2023-07-02T21:18:20;12.30;;;2.40;;
72590;SDS011;60625;51.212;5.952;2023-07-02T21:23:21;9.30;;;2.50;;
72590;SDS011;60625;51.212;5.952;2023-07-02T21:28:23;9.20;;;2.70;;
72590;SDS011;60625;51.212;5.952;2023-07-02T21:33:23;11.30;;;2.60;;
72590;SDS011;60625;51.212;5.952;2023-07-02T21:38:25;11.70;;;2.50;;
72590;SDS011;60625;51.212;5.952;2023-07-02T21:43:26;11.10;;;2.50;;
72590;SDS011;60625;51.212;5.952;2023-07-02T21:48:26;12.60;;;2.60;;
72590;SDS011;60625;51.212;5.952;2023-07-02T21:53:27;12.40;;;2.80;;
72590;SDS011;60625;51.212;5.952;2023-07-02T21:58:28;13.60;;;3.00;;
72590;SDS011;60625;51.212;5.952;2023-07-02T22:03:28;11.30;;;2.90;;
72590;SDS011;60625;51.212;5.952;2023-07-02T22:08:29;10.10;;;2.10;;
72590;SDS011;60625;51.212;5.952;2023-07-02T22:13:29;9.40;;;2.30;;
72590;SDS011;60625;51.212;5.952;2023-07-02T22:18:30;11.90;;;2.50;;
72590;SDS011;60625;51.212;5.952;2023-07-02T22:23:30;12.30;;;2.80;;
72590;SDS011;60625;51.212;5.952;2023-07-02T22:28:31;12.90;;;2.80;;
72590;SDS011;60625;51.212;5.952;2023-07-02T22:33:31;9.30;;;2.30;;
72590;SDS011;60625;51.212;5.952;2023-07-02T22:38:32;13.80;;;2.70;;
72590;SDS011;60625;51.212;5.952;2023-07-02T22:43:32;13.40;;;2.60;;
72590;SDS011;60625;51.212;5.952;2023-07-02T22:48:32;12.70;;;2.60;;
72590;SDS011;60625;51.212;5.952;2023-07-02T22:53:33;12.90;;;2.60;;
72590;SDS011;60625;51.212;5.952;2023-07-02T22:58:33;11.00;;;2.20;;
72590;SDS011;60625;51.212;5.952;2023-07-02T23:03:35;9.40;;;2.50;;
72590;SDS011;60625;51.212;5.952;2023-07-02T23:08:36;14.90;;;3.10;;
72590;SDS011;60625;51.212;5.952;2023-07-02T23:13:36;11.80;;;3.00;;
72590;SDS011;60625;51.212;5.952;2023-07-02T23:18:37;12.80;;;2.30;;
72590;SDS011;60625;51.212;5.952;2023-07-02T23:23:37;10.40;;;2.20;;
72590;SDS011;60625;51.212;5.952;2023-07-02T23:28:39;15.80;;;2.90;;
72590;SDS011;60625;51.212;5.952;2023-07-02T23:33:39;14.10;;;3.10;;
72590;SDS011;60625;51.212;5.952;2023-07-02T23:38:40;13.10;;;2.80;;
72590;SDS011;60625;51.212;5.952;2023-07-02T23:43:41;15.00;;;2.70;;
72590;SDS011;60625;51.212;5.952;2023-07-02T23:48:41;9.70;;;2.20;;
72590;SDS011;60625;51.212;5.952;2023-07-02T23:53:42;11.90;;;2.90;;
72590;SDS011;60625;51.212;5.952;2023-07-02T23:58:43;12.60;;;2.80;;
